sensor_id;sensor_type;location;lat;lon;timestamp;P1;durP1;ratioP1;P2;durP2;ratioP2
56051;SDS011;41919;42.648;23.384;2022-07-24T00:02:23;9.70;;;5.13;;
56051;SDS011;41919;42.648;23.384;2022-07-24T00:04:48;8.32;;;5.78;;
56051;SDS011;41919;42.648;23.384;2022-07-24T00:07:14;12.63;;;5.63;;
56051;SDS011;41919;42.648;23.384;2022-07-24T00:09:39;11.10;;;5.85;;
56051;SDS011;41919;42.648;23.384;2022-07-24T00:12:05;9.52;;;5.07;;
56051;SDS011;41919;42.648;23.384;2022-07-24T00:14:30;16.73;;;6.00;;
56051;SDS011;41919;42.648;23.384;2022-07-24T00:16:56;13.02;;;5.35;;
56051;SDS011;41919;42.648;23.384;2022-07-24T00:19:21;9.15;;;5.38;;
56051;SDS011;41919;42.648;23.384;2022-07-24T00:21:47;13.65;;;5.47;;
56051;SDS011;41919;42.648;23.384;2022-07-24T00:24:12;11.77;;;6.13;;
56051;SDS011;41919;42.648;23.384;2022-07-24T00:26:38;10.23;;;5.53;;
56051;SDS011;41919;42.648;23.384;2022-07-24T00:29:03;6.90;;;5.32;;
56051;SDS011;41919;42.648;23.384;2022-07-24T00:31:29;7.95;;;5.35;;
56051;SDS011;41919;42.648;23.384;2022-07-24T00:33:56;10.88;;;5.07;;
56051;SDS011;41919;42.648;23.384;2022-07-24T00:36:21;11.20;;;6.50;;
56051;SDS011;41919;42.648;23.384;2022-07-24T00:38:47;10.10;;;5.25;;
56051;SDS011;41919;42.648;23.384;2022-07-24T00:41:12;10.23;;;5.50;;
56051;SDS011;41919;42.648;23.384;2022-07-24T00:46:30;7.65;;;5.28;;
56051;SDS011;41919;42.648;23.384;2022-07-24T00:48:56;9.35;;;5.80;;
56051;SDS011;41919;42.648;23.384;2022-07-24T00:51:21;9.68;;;5.45;;
56051;SDS011;41919;42.648;23.384;2022-07-24T00:53:47;14.02;;;5.70;;
56051;SDS011;41919;42.648;23.384;2022-07-24T00:56:13;11.23;;;5.60;;
56051;SDS011;41919;42.648;23.384;2022-07-24T00:58:38;7.45;;;4.85;;
56051;SDS011;41919;42.648;23.384;2022-07-24T01:01:04;9.65;;;4.82;;
56051;SDS011;41919;42.648;23.384;2022-07-24T01:03:29;11.60;;;5.95;;
56051;SDS011;41919;42.648;23.384;2022-07-24T01:05:55;8.52;;;5.85;;
56051;SDS011;41919;42.648;23.384;2022-07-24T01:08:21;9.02;;;5.68;;
56051;SDS011;41919;42.648;23.384;2022-07-24T01:10:47;9.65;;;5.63;;
56051;SDS011;41919;42.648;23.384;2022-07-24T01:13:13;7.70;;;5.15;;
56051;SDS011;41919;42.648;23.384;2022-07-24T01:15:39;9.90;;;6.30;;
56051;SDS011;41919;42.648;23.384;2022-07-24T01:18:04;10.73;;;5.45;;
56051;SDS011;41919;42.648;23.384;2022-07-24T01:20:30;7.57;;;5.32;;
56051;SDS011;41919;42.648;23.384;2022-07-24T01:22:55;22.15;;;11.55;;
56051;SDS011;41919;42.648;23.384;2022-07-24T01:25:21;18.52;;;11.73;;
56051;SDS011;41919;42.648;23.384;2022-07-24T01:27:46;8.80;;;5.57;;
56051;SDS011;41919;42.648;23.384;2022-07-24T01:30:12;9.10;;;6.13;;
56051;SDS011;41919;42.648;23.384;2022-07-24T01:32:37;12.00;;;5.70;;
56051;SDS011;41919;42.648;23.384;2022-07-24T01:35:03;13.13;;;5.63;;
56051;SDS011;41919;42.648;23.384;2022-07-24T01:37:29;10.43;;;6.07;;
56051;SDS011;41919;42.648;23.384;2022-07-24T01:39:55;8.63;;;5.88;;
56051;SDS011;41919;42.648;23.384;2022-07-24T01:42:20;23.73;;;13.52;;
56051;SDS011;41919;42.648;23.384;2022-07-24T01:44:46;11.10;;;6.18;;
56051;SDS011;41919;42.648;23.384;2022-07-24T01:47:11;9.95;;;5.82;;
56051;SDS011;41919;42.648;23.384;2022-07-24T01:49:37;13.02;;;5.40;;
56051;SDS011;41919;42.648;23.384;2022-07-24T01:52:03;9.50;;;5.63;;
56051;SDS011;41919;42.648;23.384;2022-07-24T01:54:28;10.88;;;6.72;;
56051;SDS011;41919;42.648;23.384;2022-07-24T01:56:54;11.63;;;7.70;;
56051;SDS011;41919;42.648;23.384;2022-07-24T01:59:19;21.52;;;9.00;;
56051;SDS011;41919;42.648;23.384;2022-07-24T02:01:45;10.18;;;5.80;;
56051;SDS011;41919;42.648;23.384;2022-07-24T02:04:10;16.70;;;8.75;;
56051;SDS011;41919;42.648;23.384;2022-07-24T02:06:36;13.30;;;6.85;;
56051;SDS011;41919;42.648;23.384;2022-07-24T02:09:01;9.23;;;5.90;;
56051;SDS011;41919;42.648;23.384;2022-07-24T02:11:27;9.98;;;6.40;;
56051;SDS011;41919;42.648;23.384;2022-07-24T02:13:53;9.85;;;5.90;;
56051;SDS011;41919;42.648;23.384;2022-07-24T02:16:20;10.85;;;5.63;;
56051;SDS011;41919;42.648;23.384;2022-07-24T02:18:46;9.27;;;6.00;;
56051;SDS011;41919;42.648;23.384;2022-07-24T02:21:11;8.70;;;5.68;;
56051;SDS011;41919;42.648;23.384;2022-07-24T02:23:36;13.93;;;6.00;;
56051;SDS011;41919;42.648;23.384;2022-07-24T02:26:02;10.73;;;5.30;;
56051;SDS011;41919;42.648;23.384;2022-07-24T02:28:27;11.23;;;5.38;;
56051;SDS011;41919;42.648;23.384;2022-07-24T02:30:53;8.32;;;5.30;;
56051;SDS011;41919;42.648;23.384;2022-07-24T02:33:19;8.18;;;5.10;;
56051;SDS011;41919;42.648;23.384;2022-07-24T02:35:44;10.63;;;5.57;;
56051;SDS011;41919;42.648;23.384;2022-07-24T02:38:10;13.23;;;5.38;;
56051;SDS011;41919;42.648;23.384;2022-07-24T02:40:36;9.35;;;5.93;;
56051;SDS011;41919;42.648;23.384;2022-07-24T02:43:01;12.27;;;6.03;;
56051;SDS011;41919;42.648;23.384;2022-07-24T02:45:27;8.00;;;6.20;;
56051;SDS011;41919;42.648;23.384;2022-07-24T02:47:53;9.73;;;5.78;;
56051;SDS011;41919;42.648;23.384;2022-07-24T02:50:21;8.65;;;5.40;;
56051;SDS011;41919;42.648;23.384;2022-07-24T02:52:48;10.27;;;6.07;;
56051;SDS011;41919;42.648;23.384;2022-07-24T02:55:14;11.57;;;5.20;;
56051;SDS011;41919;42.648;23.384;2022-07-24T02:57:40;11.55;;;5.88;;
56051;SDS011;41919;42.648;23.384;2022-07-24T03:00:07;10.40;;;6.13;;
56051;SDS011;41919;42.648;23.384;2022-07-24T03:02:35;9.35;;;5.40;;
56051;SDS011;41919;42.648;23.384;2022-07-24T03:05:02;10.05;;;6.28;;
56051;SDS011;41919;42.648;23.384;2022-07-24T03:07:29;11.38;;;5.80;;
56051;SDS011;41919;42.648;23.384;2022-07-24T03:09:54;10.73;;;5.82;;
56051;SDS011;41919;42.648;23.384;2022-07-24T03:12:20;10.52;;;5.32;;
56051;SDS011;41919;42.648;23.384;2022-07-24T03:14:45;8.75;;;5.65;;
56051;SDS011;41919;42.648;23.384;2022-07-24T03:17:11;11.60;;;6.40;;
56051;SDS011;41919;42.648;23.384;2022-07-24T03:19:36;8.35;;;5.35;;
56051;SDS011;41919;42.648;23.384;2022-07-24T03:22:02;14.20;;;6.00;;
56051;SDS011;41919;42.648;23.384;2022-07-24T03:24:28;11.02;;;6.25;;
56051;SDS011;41919;42.648;23.384;2022-07-24T03:26:53;9.63;;;5.57;;
56051;SDS011;41919;42.648;23.384;2022-07-24T03:29:19;11.63;;;6.18;;
56051;SDS011;41919;42.648;23.384;2022-07-24T03:31:44;10.88;;;6.15;;
56051;SDS011;41919;42.648;23.384;2022-07-24T03:34:10;11.23;;;6.10;;
56051;SDS011;41919;42.648;23.384;2022-07-24T03:36:35;11.65;;;6.30;;
56051;SDS011;41919;42.648;23.384;2022-07-24T03:39:01;9.57;;;5.85;;
56051;SDS011;41919;42.648;23.384;2022-07-24T03:41:26;11.10;;;5.85;;
56051;SDS011;41919;42.648;23.384;2022-07-24T03:43:51;8.65;;;6.00;;
56051;SDS011;41919;42.648;23.384;2022-07-24T03:46:17;9.80;;;6.40;;
56051;SDS011;41919;42.648;23.384;2022-07-24T03:48:42;11.23;;;5.47;;
56051;SDS011;41919;42.648;23.384;2022-07-24T03:51:08;14.02;;;6.53;;
56051;SDS011;41919;42.648;23.384;2022-07-24T03:53:33;8.93;;;5.47;;
56051;SDS011;41919;42.648;23.384;2022-07-24T03:55:59;13.27;;;6.30;;
56051;SDS011;41919;42.648;23.384;2022-07-24T03:58:24;9.52;;;6.25;;
56051;SDS011;41919;42.648;23.384;2022-07-24T04:00:50;9.35;;;5.85;;
56051;SDS011;41919;42.648;23.384;2022-07-24T04:03:15;10.10;;;5.95;;
56051;SDS011;41919;42.648;23.384;2022-07-24T04:05:40;13.85;;;6.82;;
56051;SDS011;41919;42.648;23.384;2022-07-24T04:08:06;12.27;;;5.97;;
56051;SDS011;41919;42.648;23.384;2022-07-24T04:10:31;13.13;;;6.45;;
56051;SDS011;41919;42.648;23.384;2022-07-24T04:12:57;9.77;;;5.95;;
56051;SDS011;41919;42.648;23.384;2022-07-24T04:15:22;11.93;;;6.68;;
56051;SDS011;41919;42.648;23.384;2022-07-24T04:17:47;9.65;;;5.55;;
56051;SDS011;41919;42.648;23.384;2022-07-24T04:20:13;10.35;;;5.93;;
56051;SDS011;41919;42.648;23.384;2022-07-24T04:22:38;10.38;;;6.15;;
56051;SDS011;41919;42.648;23.384;2022-07-24T04:25:04;11.90;;;5.53;;
56051;SDS011;41919;42.648;23.384;2022-07-24T04:27:30;9.30;;;6.03;;
56051;SDS011;41919;42.648;23.384;2022-07-24T04:29:55;11.18;;;5.93;;
56051;SDS011;41919;42.648;23.384;2022-07-24T04:32:23;10.05;;;5.85;;
56051;SDS011;41919;42.648;23.384;2022-07-24T04:34:48;8.88;;;6.22;;
56051;SDS011;41919;42.648;23.384;2022-07-24T04:37:14;8.35;;;5.97;;
56051;SDS011;41919;42.648;23.384;2022-07-24T04:39:39;11.63;;;5.90;;
56051;SDS011;41919;42.648;23.384;2022-07-24T04:42:04;8.75;;;5.20;;
56051;SDS011;41919;42.648;23.384;2022-07-24T04:44:30;9.50;;;5.63;;
56051;SDS011;41919;42.648;23.384;2022-07-24T04:46:55;13.43;;;5.90;;
56051;SDS011;41919;42.648;23.384;2022-07-24T04:49:21;11.27;;;6.07;;
56051;SDS011;41919;42.648;23.384;2022-07-24T04:51:46;10.75;;;6.13;;
56051;SDS011;41919;42.648;23.384;2022-07-24T04:54:12;11.38;;;5.72;;
56051;SDS011;41919;42.648;23.384;2022-07-24T04:56:37;10.77;;;5.60;;
56051;SDS011;41919;42.648;23.384;2022-07-24T04:59:02;10.80;;;6.22;;
56051;SDS011;41919;42.648;23.384;2022-07-24T05:01:28;9.32;;;6.32;;
56051;SDS011;41919;42.648;23.384;2022-07-24T05:03:53;10.50;;;5.47;;
56051;SDS011;41919;42.648;23.384;2022-07-24T05:06:21;12.95;;;6.10;;
56051;SDS011;41919;42.648;23.384;2022-07-24T05:08:48;10.35;;;6.85;;
56051;SDS011;41919;42.648;23.384;2022-07-24T05:11:13;16.77;;;6.22;;
56051;SDS011;41919;42.648;23.384;2022-07-24T05:13:38;12.25;;;5.90;;
56051;SDS011;41919;42.648;23.384;2022-07-24T05:16:04;10.05;;;5.78;;
56051;SDS011;41919;42.648;23.384;2022-07-24T05:18:30;10.50;;;5.80;;
56051;SDS011;41919;42.648;23.384;2022-07-24T05:20:55;9.50;;;6.10;;
56051;SDS011;41919;42.648;23.384;2022-07-24T05:23:20;14.73;;;6.13;;
56051;SDS011;41919;42.648;23.384;2022-07-24T05:25:46;9.63;;;6.53;;
56051;SDS011;41919;42.648;23.384;2022-07-24T05:28:11;9.30;;;6.10;;
56051;SDS011;41919;42.648;23.384;2022-07-24T05:30:37;9.73;;;6.32;;
56051;SDS011;41919;42.648;23.384;2022-07-24T05:33:02;13.15;;;6.47;;
56051;SDS011;41919;42.648;23.384;2022-07-24T05:35:28;9.18;;;5.88;;
56051;SDS011;41919;42.648;23.384;2022-07-24T05:37:54;12.77;;;7.28;;
56051;SDS011;41919;42.648;23.384;2022-07-24T05:40:19;11.18;;;6.70;;
56051;SDS011;41919;42.648;23.384;2022-07-24T05:42:45;10.77;;;6.30;;
56051;SDS011;41919;42.648;23.384;2022-07-24T05:45:10;9.80;;;6.70;;
56051;SDS011;41919;42.648;23.384;2022-07-24T05:47:39;10.07;;;6.43;;
56051;SDS011;41919;42.648;23.384;2022-07-24T05:50:07;14.52;;;6.10;;
56051;SDS011;41919;42.648;23.384;2022-07-24T05:52:34;11.45;;;7.45;;
56051;SDS011;41919;42.648;23.384;2022-07-24T05:55:00;14.00;;;6.38;;
56051;SDS011;41919;42.648;23.384;2022-07-24T05:57:25;12.75;;;6.75;;
56051;SDS011;41919;42.648;23.384;2022-07-24T05:59:50;8.88;;;6.35;;
56051;SDS011;41919;42.648;23.384;2022-07-24T06:02:16;11.57;;;6.88;;
56051;SDS011;41919;42.648;23.384;2022-07-24T06:04:41;9.77;;;6.63;;
56051;SDS011;41919;42.648;23.384;2022-07-24T06:07:08;11.52;;;6.65;;
56051;SDS011;41919;42.648;23.384;2022-07-24T06:09:35;9.90;;;6.88;;
56051;SDS011;41919;42.648;23.384;2022-07-24T06:12:01;10.40;;;6.63;;
56051;SDS011;41919;42.648;23.384;2022-07-24T06:14:28;9.23;;;6.88;;
56051;SDS011;41919;42.648;23.384;2022-07-24T06:16:54;9.73;;;6.88;;
56051;SDS011;41919;42.648;23.384;2022-07-24T06:19:19;8.70;;;6.93;;
56051;SDS011;41919;42.648;23.384;2022-07-24T06:21:45;11.00;;;7.18;;
56051;SDS011;41919;42.648;23.384;2022-07-24T06:24:10;12.98;;;6.95;;
56051;SDS011;41919;42.648;23.384;2022-07-24T06:26:36;10.88;;;7.13;;
56051;SDS011;41919;42.648;23.384;2022-07-24T06:29:01;9.50;;;7.07;;
56051;SDS011;41919;42.648;23.384;2022-07-24T06:31:26;14.38;;;6.82;;
56051;SDS011;41919;42.648;23.384;2022-07-24T06:33:52;10.02;;;6.90;;
56051;SDS011;41919;42.648;23.384;2022-07-24T06:36:17;13.38;;;7.55;;
56051;SDS011;41919;42.648;23.384;2022-07-24T06:38:43;9.38;;;7.20;;
56051;SDS011;41919;42.648;23.384;2022-07-24T06:41:08;16.00;;;7.28;;
56051;SDS011;41919;42.648;23.384;2022-07-24T06:43:34;10.95;;;6.85;;
56051;SDS011;41919;42.648;23.384;2022-07-24T06:45:59;13.13;;;7.25;;
56051;SDS011;41919;42.648;23.384;2022-07-24T06:48:25;8.63;;;6.53;;
56051;SDS011;41919;42.648;23.384;2022-07-24T06:50:50;14.20;;;7.70;;
56051;SDS011;41919;42.648;23.384;2022-07-24T06:53:16;8.80;;;7.50;;
56051;SDS011;41919;42.648;23.384;2022-07-24T06:55:41;13.13;;;8.07;;
56051;SDS011;41919;42.648;23.384;2022-07-24T06:58:07;9.73;;;7.22;;
56051;SDS011;41919;42.648;23.384;2022-07-24T07:00:32;15.68;;;7.25;;
56051;SDS011;41919;42.648;23.384;2022-07-24T07:02:58;14.48;;;7.45;;
56051;SDS011;41919;42.648;23.384;2022-07-24T07:05:23;13.32;;;7.70;;
56051;SDS011;41919;42.648;23.384;2022-07-24T07:07:49;15.40;;;7.32;;
56051;SDS011;41919;42.648;23.384;2022-07-24T07:10:14;12.88;;;8.10;;
56051;SDS011;41919;42.648;23.384;2022-07-24T07:12:40;12.85;;;7.65;;
56051;SDS011;41919;42.648;23.384;2022-07-24T07:15:06;12.38;;;7.50;;
56051;SDS011;41919;42.648;23.384;2022-07-24T07:17:36;11.77;;;7.75;;
56051;SDS011;41919;42.648;23.384;2022-07-24T07:20:02;13.10;;;6.88;;
56051;SDS011;41919;42.648;23.384;2022-07-24T07:22:28;12.00;;;8.05;;
56051;SDS011;41919;42.648;23.384;2022-07-24T07:24:53;12.25;;;7.18;;
56051;SDS011;41919;42.648;23.384;2022-07-24T07:27:19;10.88;;;7.43;;
56051;SDS011;41919;42.648;23.384;2022-07-24T07:29:44;12.10;;;6.90;;
56051;SDS011;41919;42.648;23.384;2022-07-24T07:32:09;14.32;;;7.68;;
56051;SDS011;41919;42.648;23.384;2022-07-24T07:34:35;9.63;;;7.38;;
56051;SDS011;41919;42.648;23.384;2022-07-24T07:37:00;11.30;;;7.72;;
56051;SDS011;41919;42.648;23.384;2022-07-24T07:39:26;14.13;;;8.50;;
56051;SDS011;41919;42.648;23.384;2022-07-24T07:41:51;13.68;;;7.78;;
56051;SDS011;41919;42.648;23.384;2022-07-24T07:44:16;12.45;;;7.70;;
56051;SDS011;41919;42.648;23.384;2022-07-24T07:46:42;12.73;;;8.13;;
56051;SDS011;41919;42.648;23.384;2022-07-24T07:49:08;13.10;;;8.00;;
56051;SDS011;41919;42.648;23.384;2022-07-24T07:51:34;15.68;;;8.18;;
56051;SDS011;41919;42.648;23.384;2022-07-24T07:53:59;13.52;;;7.90;;
56051;SDS011;41919;42.648;23.384;2022-07-24T07:56:25;13.35;;;7.80;;
56051;SDS011;41919;42.648;23.384;2022-07-24T07:58:50;13.23;;;7.47;;
56051;SDS011;41919;42.648;23.384;2022-07-24T08:01:16;11.35;;;7.90;;
56051;SDS011;41919;42.648;23.384;2022-07-24T08:03:41;12.38;;;7.90;;
56051;SDS011;41919;42.648;23.384;2022-07-24T08:06:07;9.25;;;7.40;;
56051;SDS011;41919;42.648;23.384;2022-07-24T08:08:32;14.90;;;7.55;;
56051;SDS011;41919;42.648;23.384;2022-07-24T08:10:58;8.98;;;7.32;;
56051;SDS011;41919;42.648;23.384;2022-07-24T08:13:23;10.68;;;7.63;;
56051;SDS011;41919;42.648;23.384;2022-07-24T08:15:48;11.57;;;7.22;;
56051;SDS011;41919;42.648;23.384;2022-07-24T08:18:14;16.65;;;7.18;;
56051;SDS011;41919;42.648;23.384;2022-07-24T08:20:39;12.45;;;6.97;;
56051;SDS011;41919;42.648;23.384;2022-07-24T08:23:05;9.90;;;7.45;;
56051;SDS011;41919;42.648;23.384;2022-07-24T08:25:30;10.85;;;7.47;;
56051;SDS011;41919;42.648;23.384;2022-07-24T08:27:55;14.52;;;7.40;;
56051;SDS011;41919;42.648;23.384;2022-07-24T08:30:21;12.30;;;6.72;;
56051;SDS011;41919;42.648;23.384;2022-07-24T08:32:47;11.52;;;7.53;;
56051;SDS011;41919;42.648;23.384;2022-07-24T08:35:13;12.15;;;7.63;;
56051;SDS011;41919;42.648;23.384;2022-07-24T08:37:40;14.40;;;7.57;;
56051;SDS011;41919;42.648;23.384;2022-07-24T08:40:07;12.13;;;7.38;;
56051;SDS011;41919;42.648;23.384;2022-07-24T08:42:35;12.27;;;7.47;;
56051;SDS011;41919;42.648;23.384;2022-07-24T08:45:01;12.95;;;7.20;;
56051;SDS011;41919;42.648;23.384;2022-07-24T08:47:28;14.90;;;8.30;;
56051;SDS011;41919;42.648;23.384;2022-07-24T08:49:57;13.40;;;8.02;;
56051;SDS011;41919;42.648;23.384;2022-07-24T08:52:23;13.75;;;8.30;;
56051;SDS011;41919;42.648;23.384;2022-07-24T08:54:50;13.25;;;7.40;;
56051;SDS011;41919;42.648;23.384;2022-07-24T08:57:15;13.43;;;7.70;;
56051;SDS011;41919;42.648;23.384;2022-07-24T08:59:41;15.38;;;8.15;;
56051;SDS011;41919;42.648;23.384;2022-07-24T09:02:07;12.70;;;7.47;;
56051;SDS011;41919;42.648;23.384;2022-07-24T09:04:40;15.68;;;7.50;;
56051;SDS011;41919;42.648;23.384;2022-07-24T09:07:11;13.35;;;8.23;;
56051;SDS011;41919;42.648;23.384;2022-07-24T09:09:39;15.38;;;8.25;;
56051;SDS011;41919;42.648;23.384;2022-07-24T09:12:07;10.65;;;8.20;;
56051;SDS011;41919;42.648;23.384;2022-07-24T09:14:41;17.02;;;8.15;;
56051;SDS011;41919;42.648;23.384;2022-07-24T09:17:11;14.18;;;7.35;;
56051;SDS011;41919;42.648;23.384;2022-07-24T09:25:02;12.18;;;8.02;;
56051;SDS011;41919;42.648;23.384;2022-07-24T09:27:28;18.05;;;8.48;;
56051;SDS011;41919;42.648;23.384;2022-07-24T09:29:53;15.60;;;8.38;;
56051;SDS011;41919;42.648;23.384;2022-07-24T09:32:22;29.52;;;21.75;;
56051;SDS011;41919;42.648;23.384;2022-07-24T09:34:50;110.03;;;51.13;;
56051;SDS011;41919;42.648;23.384;2022-07-24T09:37:17;98.30;;;40.90;;
56051;SDS011;41919;42.648;23.384;2022-07-24T09:39:43;162.30;;;69.65;;
56051;SDS011;41919;42.648;23.384;2022-07-24T09:42:08;114.57;;;54.13;;
56051;SDS011;41919;42.648;23.384;2022-07-24T09:44:34;56.67;;;31.48;;
56051;SDS011;41919;42.648;23.384;2022-07-24T09:47:10;162.80;;;77.95;;
56051;SDS011;41919;42.648;23.384;2022-07-24T09:49:37;114.00;;;58.03;;
56051;SDS011;41919;42.648;23.384;2022-07-24T09:52:06;73.82;;;40.15;;
56051;SDS011;41919;42.648;23.384;2022-07-24T10:00:05;46.58;;;38.58;;
56051;SDS011;41919;42.648;23.384;2022-07-24T10:02:32;56.10;;;42.45;;
56051;SDS011;41919;42.648;23.384;2022-07-24T10:05:00;59.38;;;39.70;;
56051;SDS011;41919;42.648;23.384;2022-07-24T10:07:27;33.67;;;17.77;;
56051;SDS011;41919;42.648;23.384;2022-07-24T10:09:55;32.25;;;23.27;;
56051;SDS011;41919;42.648;23.384;2022-07-24T10:12:23;18.70;;;10.20;;
56051;SDS011;41919;42.648;23.384;2022-07-24T10:14:51;12.35;;;8.75;;
56051;SDS011;41919;42.648;23.384;2022-07-24T10:17:18;13.48;;;7.95;;
56051;SDS011;41919;42.648;23.384;2022-07-24T10:19:46;10.70;;;8.27;;
56051;SDS011;41919;42.648;23.384;2022-07-24T10:29:52;10.10;;;6.90;;
56051;SDS011;41919;42.648;23.384;2022-07-24T10:32:20;13.20;;;6.60;;
56051;SDS011;41919;42.648;23.384;2022-07-24T10:45:42;12.38;;;7.43;;
56051;SDS011;41919;42.648;23.384;2022-07-24T10:58:56;8.93;;;6.55;;
56051;SDS011;41919;42.648;23.384;2022-07-24T11:01:36;13.50;;;6.68;;
56051;SDS011;41919;42.648;23.384;2022-07-24T11:04:32;7.10;;;6.30;;
56051;SDS011;41919;42.648;23.384;2022-07-24T11:07:10;10.18;;;6.50;;
56051;SDS011;41919;42.648;23.384;2022-07-24T11:10:29;7.43;;;6.63;;
56051;SDS011;41919;42.648;23.384;2022-07-24T11:12:33;8.77;;;6.35;;
56051;SDS011;41919;42.648;23.384;2022-07-24T11:15:09;10.23;;;6.90;;
56051;SDS011;41919;42.648;23.384;2022-07-24T11:17:54;10.82;;;6.75;;
56051;SDS011;41919;42.648;23.384;2022-07-24T11:20:20;9.75;;;6.75;;
56051;SDS011;41919;42.648;23.384;2022-07-24T11:22:48;10.77;;;6.65;;
56051;SDS011;41919;42.648;23.384;2022-07-24T11:25:16;10.85;;;6.25;;
56051;SDS011;41919;42.648;23.384;2022-07-24T11:27:45;8.23;;;6.65;;
56051;SDS011;41919;42.648;23.384;2022-07-24T11:30:33;9.10;;;6.82;;
56051;SDS011;41919;42.648;23.384;2022-07-24T11:33:07;7.93;;;6.13;;
56051;SDS011;41919;42.648;23.384;2022-07-24T11:35:42;7.75;;;6.50;;
56051;SDS011;41919;42.648;23.384;2022-07-24T11:38:07;6.82;;;6.10;;
56051;SDS011;41919;42.648;23.384;2022-07-24T11:40:34;7.22;;;6.30;;
56051;SDS011;41919;42.648;23.384;2022-07-24T11:43:01;8.30;;;6.45;;
56051;SDS011;41919;42.648;23.384;2022-07-24T11:45:29;11.73;;;7.28;;
56051;SDS011;41919;42.648;23.384;2022-07-24T11:47:54;8.73;;;7.07;;
56051;SDS011;41919;42.648;23.384;2022-07-24T11:50:24;11.80;;;7.30;;
56051;SDS011;41919;42.648;23.384;2022-07-24T11:52:50;11.48;;;6.80;;
56051;SDS011;41919;42.648;23.384;2022-07-24T11:55:17;9.93;;;7.15;;
56051;SDS011;41919;42.648;23.384;2022-07-24T11:57:46;12.55;;;6.75;;
56051;SDS011;41919;42.648;23.384;2022-07-24T12:00:14;6.88;;;6.28;;
56051;SDS011;41919;42.648;23.384;2022-07-24T12:03:03;7.70;;;6.95;;
56051;SDS011;41919;42.648;23.384;2022-07-24T12:07:57;8.40;;;6.50;;
56051;SDS011;41919;42.648;23.384;2022-07-24T12:10:25;8.48;;;6.88;;
56051;SDS011;41919;42.648;23.384;2022-07-24T12:12:51;11.40;;;7.03;;
56051;SDS011;41919;42.648;23.384;2022-07-24T12:15:22;9.55;;;6.68;;
56051;SDS011;41919;42.648;23.384;2022-07-24T12:20:27;11.90;;;6.82;;
56051;SDS011;41919;42.648;23.384;2022-07-24T12:22:54;10.55;;;7.00;;
56051;SDS011;41919;42.648;23.384;2022-07-24T12:25:21;8.27;;;7.13;;
56051;SDS011;41919;42.648;23.384;2022-07-24T12:27:48;10.20;;;6.65;;
56051;SDS011;41919;42.648;23.384;2022-07-24T12:30:20;12.77;;;10.57;;
56051;SDS011;41919;42.648;23.384;2022-07-24T12:35:19;8.52;;;7.18;;
56051;SDS011;41919;42.648;23.384;2022-07-24T12:37:45;9.25;;;7.53;;
56051;SDS011;41919;42.648;23.384;2022-07-24T12:40:20;8.82;;;6.78;;
56051;SDS011;41919;42.648;23.384;2022-07-24T12:42:58;7.32;;;6.57;;
56051;SDS011;41919;42.648;23.384;2022-07-24T12:46:03;10.20;;;7.38;;
56051;SDS011;41919;42.648;23.384;2022-07-24T12:48:33;7.60;;;6.95;;
56051;SDS011;41919;42.648;23.384;2022-07-24T12:51:05;8.38;;;6.90;;
56051;SDS011;41919;42.648;23.384;2022-07-24T12:53:36;9.65;;;7.25;;
56051;SDS011;41919;42.648;23.384;2022-07-24T12:56:08;8.23;;;6.95;;
56051;SDS011;41919;42.648;23.384;2022-07-24T13:01:21;8.43;;;7.18;;
56051;SDS011;41919;42.648;23.384;2022-07-24T13:04:08;9.32;;;7.00;;
56051;SDS011;41919;42.648;23.384;2022-07-24T13:06:36;7.80;;;6.95;;
56051;SDS011;41919;42.648;23.384;2022-07-24T13:09:05;12.52;;;6.85;;
56051;SDS011;41919;42.648;23.384;2022-07-24T13:11:33;9.68;;;7.40;;
56051;SDS011;41919;42.648;23.384;2022-07-24T13:13:59;10.80;;;7.15;;
56051;SDS011;41919;42.648;23.384;2022-07-24T13:16:26;14.85;;;7.18;;
56051;SDS011;41919;42.648;23.384;2022-07-24T13:18:54;14.50;;;7.30;;
56051;SDS011;41919;42.648;23.384;2022-07-24T13:21:19;8.25;;;6.30;;
56051;SDS011;41919;42.648;23.384;2022-07-24T13:23:45;11.75;;;7.38;;
56051;SDS011;41919;42.648;23.384;2022-07-24T13:26:11;10.55;;;6.90;;
56051;SDS011;41919;42.648;23.384;2022-07-24T13:28:36;9.20;;;7.70;;
56051;SDS011;41919;42.648;23.384;2022-07-24T13:31:02;11.18;;;7.47;;
56051;SDS011;41919;42.648;23.384;2022-07-24T13:33:27;12.40;;;7.50;;
56051;SDS011;41919;42.648;23.384;2022-07-24T13:35:53;7.35;;;6.75;;
56051;SDS011;41919;42.648;23.384;2022-07-24T13:38:18;8.52;;;6.70;;
56051;SDS011;41919;42.648;23.384;2022-07-24T13:40:44;8.00;;;7.20;;
56051;SDS011;41919;42.648;23.384;2022-07-24T13:43:09;7.70;;;6.90;;
56051;SDS011;41919;42.648;23.384;2022-07-24T13:45:35;8.07;;;7.20;;
56051;SDS011;41919;42.648;23.384;2022-07-24T13:48:00;9.00;;;7.22;;
56051;SDS011;41919;42.648;23.384;2022-07-24T13:50:26;9.75;;;6.90;;
56051;SDS011;41919;42.648;23.384;2022-07-24T13:52:52;9.82;;;7.32;;
56051;SDS011;41919;42.648;23.384;2022-07-24T13:55:18;11.05;;;7.45;;
56051;SDS011;41919;42.648;23.384;2022-07-24T13:57:43;9.65;;;7.35;;
56051;SDS011;41919;42.648;23.384;2022-07-24T14:00:09;9.18;;;7.97;;
56051;SDS011;41919;42.648;23.384;2022-07-24T14:02:35;11.23;;;8.05;;
56051;SDS011;41919;42.648;23.384;2022-07-24T14:05:00;9.85;;;8.02;;
56051;SDS011;41919;42.648;23.384;2022-07-24T14:07:26;13.43;;;7.60;;
56051;SDS011;41919;42.648;23.384;2022-07-24T14:09:52;11.10;;;7.95;;
56051;SDS011;41919;42.648;23.384;2022-07-24T14:12:20;9.38;;;7.68;;
56051;SDS011;41919;42.648;23.384;2022-07-24T14:14:45;11.57;;;7.75;;
56051;SDS011;41919;42.648;23.384;2022-07-24T14:17:11;8.63;;;7.82;;
56051;SDS011;41919;42.648;23.384;2022-07-24T14:19:37;11.80;;;8.45;;
56051;SDS011;41919;42.648;23.384;2022-07-24T14:22:03;9.98;;;8.50;;
56051;SDS011;41919;42.648;23.384;2022-07-24T14:24:28;16.38;;;8.23;;
56051;SDS011;41919;42.648;23.384;2022-07-24T14:26:54;12.48;;;7.28;;
56051;SDS011;41919;42.648;23.384;2022-07-24T14:29:19;12.68;;;7.35;;
56051;SDS011;41919;42.648;23.384;2022-07-24T14:31:45;17.85;;;7.28;;
56051;SDS011;41919;42.648;23.384;2022-07-24T14:34:11;10.55;;;6.90;;
56051;SDS011;41919;42.648;23.384;2022-07-24T14:36:37;10.70;;;7.03;;
56051;SDS011;41919;42.648;23.384;2022-07-24T14:39:03;8.15;;;7.20;;
56051;SDS011;41919;42.648;23.384;2022-07-24T14:41:29;12.45;;;7.38;;
56051;SDS011;41919;42.648;23.384;2022-07-24T14:43:54;8.23;;;7.43;;
56051;SDS011;41919;42.648;23.384;2022-07-24T14:46:20;12.68;;;7.43;;
56051;SDS011;41919;42.648;23.384;2022-07-24T14:48:45;9.60;;;7.72;;
56051;SDS011;41919;42.648;23.384;2022-07-24T14:51:11;10.13;;;7.22;;
56051;SDS011;41919;42.648;23.384;2022-07-24T14:53:36;9.18;;;7.40;;
56051;SDS011;41919;42.648;23.384;2022-07-24T14:56:02;8.05;;;7.18;;
56051;SDS011;41919;42.648;23.384;2022-07-24T14:58:28;8.38;;;7.28;;
56051;SDS011;41919;42.648;23.384;2022-07-24T15:00:53;15.50;;;7.43;;
56051;SDS011;41919;42.648;23.384;2022-07-24T15:03:20;9.15;;;7.13;;
56051;SDS011;41919;42.648;23.384;2022-07-24T15:05:45;8.00;;;7.20;;
56051;SDS011;41919;42.648;23.384;2022-07-24T15:08:11;11.02;;;7.88;;
56051;SDS011;41919;42.648;23.384;2022-07-24T15:10:36;8.05;;;7.25;;
56051;SDS011;41919;42.648;23.384;2022-07-24T15:13:02;10.50;;;7.72;;
56051;SDS011;41919;42.648;23.384;2022-07-24T15:15:27;10.32;;;8.00;;
56051;SDS011;41919;42.648;23.384;2022-07-24T15:17:53;12.75;;;7.90;;